createdAt,value
2022-12-11T00:01:57.807Z,21.58
2022-12-11T00:04:24.391Z,21.33
2022-12-11T00:06:52.351Z,24.77
2022-12-11T00:09:20.871Z,20.52
2022-12-11T00:11:48.438Z,21.98
2022-12-11T00:14:16.000Z,26.13
2022-12-11T00:16:42.793Z,26.50
2022-12-11T00:19:09.390Z,24.90
2022-12-11T00:21:36.074Z,23.15
2022-12-11T00:24:03.066Z,23.95
2022-12-11T00:26:29.674Z,21.75
2022-12-11T00:28:57.109Z,24.45
2022-12-11T00:31:24.163Z,26.57
2022-12-11T00:33:51.264Z,28.20
2022-12-11T00:36:21.322Z,24.55
2022-12-11T00:38:48.909Z,26.30
2022-12-11T00:41:16.205Z,26.77
2022-12-11T00:43:43.050Z,23.13
2022-12-11T00:46:10.443Z,23.40
2022-12-11T00:48:37.196Z,24.80
2022-12-11T00:51:03.939Z,24.77
2022-12-11T00:53:30.644Z,24.35
2022-12-11T00:55:57.310Z,22.70
2022-12-11T00:58:24.000Z,25.15
2022-12-11T01:00:50.663Z,25.88
2022-12-11T01:03:17.892Z,25.30
2022-12-11T01:05:54.759Z,25.45
2022-12-11T01:08:22.157Z,24.27
2022-12-11T01:10:48.848Z,25.92
2022-12-11T01:13:15.679Z,22.48
2022-12-11T01:15:45.021Z,23.80
2022-12-11T01:18:13.410Z,26.70
2022-12-11T01:20:43.322Z,23.23
2022-12-11T01:23:12.905Z,23.58
2022-12-11T01:25:39.500Z,26.25
2022-12-11T01:28:06.414Z,21.60
2022-12-11T01:30:33.429Z,22.90
2022-12-11T01:33:00.802Z,26.37
2022-12-11T01:35:28.742Z,23.58
2022-12-11T01:37:55.557Z,22.08
2022-12-11T01:40:23.295Z,22.42
2022-12-11T01:42:49.798Z,23.52
2022-12-11T01:45:27.116Z,23.53
2022-12-11T01:48:08.268Z,24.88
2022-12-11T01:50:40.035Z,25.27
2022-12-11T01:53:11.558Z,23.95
2022-12-11T01:55:39.790Z,24.88
2022-12-11T01:58:07.651Z,24.37
2022-12-11T02:00:34.583Z,23.80
2022-12-11T02:03:01.504Z,23.60
2022-12-11T02:05:28.135Z,23.85
2022-12-11T02:07:58.739Z,24.45
2022-12-11T02:10:48.222Z,24.80
2022-12-11T02:13:43.206Z,21.33
2022-12-11T02:16:21.302Z,23.42
2022-12-11T02:19:14.476Z,21.23
2022-12-11T02:21:48.669Z,26.30
2022-12-11T02:24:29.017Z,24.57
2022-12-11T02:27:16.887Z,25.88
2022-12-11T02:30:02.433Z,23.27
2022-12-11T02:32:43.564Z,28.00
2022-12-11T02:35:21.230Z,26.42
2022-12-11T02:37:51.495Z,24.17
2022-12-11T02:40:23.360Z,27.65
2022-12-11T02:42:51.629Z,25.63
2022-12-11T02:45:19.824Z,26.23
2022-12-11T02:47:48.791Z,25.55
2022-12-11T02:50:19.087Z,26.80
2022-12-11T02:52:48.248Z,24.50
2022-12-11T02:55:16.256Z,24.15
2022-12-11T02:57:48.987Z,24.67
2022-12-11T03:00:16.804Z,25.02
2022-12-11T03:02:44.344Z,24.27
2022-12-11T03:05:13.058Z,26.50
2022-12-11T03:07:42.416Z,27.77
2022-12-11T03:10:12.596Z,24.88
2022-12-11T03:12:43.586Z,24.23
2022-12-11T03:15:19.053Z,26.13
2022-12-11T03:17:57.544Z,24.27
2022-12-11T03:20:42.857Z,25.45
2022-12-11T03:23:28.304Z,25.13
2022-12-11T03:25:59.084Z,28.05
2022-12-11T03:28:49.146Z,24.53
2022-12-11T03:31:26.048Z,25.23
2022-12-11T03:33:56.001Z,24.67
2022-12-11T03:36:29.859Z,25.55
2022-12-11T03:39:05.701Z,22.50
2022-12-11T03:41:34.295Z,26.00
2022-12-11T03:44:01.153Z,25.52
2022-12-11T03:46:32.047Z,28.35
2022-12-11T03:49:03.167Z,25.67
2022-12-11T03:51:32.353Z,29.63
2022-12-11T03:53:59.935Z,25.90
2022-12-11T03:56:29.965Z,24.00
2022-12-11T03:58:56.564Z,26.95
2022-12-11T04:01:23.131Z,23.92
2022-12-11T04:03:49.806Z,26.40
2022-12-11T04:06:16.350Z,24.27
2022-12-11T04:08:42.882Z,22.75
2022-12-11T04:11:28.758Z,25.65
2022-12-11T04:14:13.545Z,24.35
2022-12-11T04:16:40.162Z,24.70
2022-12-11T04:19:25.300Z,24.83
2022-12-11T04:22:10.570Z,24.23
2022-12-11T04:24:37.243Z,28.73
2022-12-11T04:27:03.797Z,24.23
2022-12-11T04:29:30.377Z,23.95
2022-12-11T04:31:57.161Z,23.00
2022-12-11T04:34:24.172Z,24.70
2022-12-11T04:36:50.848Z,24.60
2022-12-11T04:39:17.761Z,32.47
2022-12-11T04:41:44.473Z,27.05
2022-12-11T04:44:11.242Z,31.73
2022-12-11T04:46:37.886Z,31.45
2022-12-11T04:49:04.552Z,32.85
2022-12-11T04:51:31.410Z,36.47
2022-12-11T04:53:58.416Z,37.13
2022-12-11T04:56:24.877Z,33.60
2022-12-11T04:58:51.393Z,35.28
2022-12-11T05:01:21.688Z,32.00
2022-12-11T05:03:49.050Z,27.40
2022-12-11T05:06:15.933Z,29.90
2022-12-11T05:08:43.576Z,29.00
2022-12-11T05:11:12.405Z,26.50
2022-12-11T05:13:39.634Z,26.70
2022-12-11T05:16:08.355Z,27.05
2022-12-11T05:18:35.969Z,25.48
2022-12-11T05:21:06.532Z,26.73
2022-12-11T05:23:33.338Z,22.02
2022-12-11T05:26:02.390Z,22.80
2022-12-11T05:28:32.778Z,21.98
2022-12-11T05:31:29.685Z,24.00
2022-12-11T05:33:57.341Z,20.57
2022-12-11T05:36:27.179Z,23.83
2022-12-11T05:38:54.553Z,28.63
2022-12-11T05:41:23.182Z,23.98
2022-12-11T05:43:50.031Z,18.98
2022-12-11T05:46:22.983Z,19.07
2022-12-11T05:48:53.589Z,19.23
2022-12-11T05:51:20.732Z,20.85
2022-12-11T05:53:49.433Z,18.40
2022-12-11T05:56:24.027Z,19.00
2022-12-11T05:58:51.028Z,19.10
2022-12-11T06:01:21.098Z,16.80
2022-12-11T06:03:48.013Z,18.15
2022-12-11T06:06:15.133Z,20.60
2022-12-11T06:08:41.999Z,20.00
2022-12-11T06:11:08.761Z,18.97
2022-12-11T06:13:35.892Z,18.75
2022-12-11T06:16:04.203Z,18.17
2022-12-11T06:18:31.113Z,20.10
2022-12-11T06:20:57.898Z,21.42
2022-12-11T06:23:24.569Z,20.97
2022-12-11T06:25:51.159Z,16.90
2022-12-11T06:28:17.687Z,19.45
2022-12-11T06:30:44.925Z,20.33
2022-12-11T06:33:11.532Z,22.67
2022-12-11T06:35:41.984Z,19.60
2022-12-11T06:38:10.765Z,20.30
2022-12-11T06:40:37.559Z,21.10
2022-12-11T06:43:04.058Z,18.88
2022-12-11T06:45:30.834Z,16.25
2022-12-11T06:47:58.367Z,17.90
2022-12-11T06:50:25.148Z,15.63
2022-12-11T06:52:51.764Z,16.30
2022-12-11T06:55:18.530Z,15.13
2022-12-11T06:57:44.990Z,17.58
2022-12-11T07:00:12.078Z,17.13
2022-12-11T07:02:39.753Z,16.35
2022-12-11T07:05:06.856Z,16.60
2022-12-11T07:07:33.447Z,15.07
2022-12-11T07:10:07.382Z,16.83
2022-12-11T07:12:35.466Z,15.60
2022-12-11T07:15:02.048Z,16.10
2022-12-11T07:17:29.531Z,18.38
2022-12-11T07:19:56.206Z,19.88
2022-12-11T07:22:23.029Z,14.98
2022-12-11T07:24:49.698Z,16.07
2022-12-11T07:27:16.249Z,15.13
2022-12-11T07:29:42.784Z,14.88
2022-12-11T07:32:09.436Z,19.05
2022-12-11T07:34:36.271Z,15.43
2022-12-11T07:37:02.984Z,16.47
2022-12-11T07:39:29.556Z,19.08
2022-12-11T07:41:56.104Z,20.73
2022-12-11T07:44:23.302Z,16.20
2022-12-11T07:46:49.823Z,16.85
2022-12-11T07:49:16.343Z,16.10
2022-12-11T07:51:43.311Z,16.17
2022-12-11T07:54:16.507Z,15.68
2022-12-11T07:56:53.252Z,16.45
2022-12-11T07:59:21.115Z,16.13
2022-12-11T08:01:47.821Z,16.20
2022-12-11T08:04:15.790Z,16.73
2022-12-11T08:06:43.101Z,18.40
2022-12-11T08:09:17.423Z,17.08
2022-12-11T08:11:49.851Z,15.07
2022-12-11T08:14:16.410Z,17.97
2022-12-11T08:16:44.102Z,18.88
2022-12-11T08:19:14.606Z,19.25
2022-12-11T08:21:41.268Z,19.27
2022-12-11T08:24:09.157Z,17.58
2022-12-11T08:26:35.988Z,16.50
2022-12-11T08:29:03.662Z,18.90
2022-12-11T08:31:30.759Z,16.73
2022-12-11T08:33:57.800Z,18.08
2022-12-11T08:36:25.181Z,16.75
2022-12-11T08:38:54.714Z,17.93
2022-12-11T08:41:27.351Z,18.10
2022-12-11T08:43:55.142Z,17.08
2022-12-11T08:46:24.315Z,16.50
2022-12-11T08:48:51.491Z,15.93
2022-12-11T08:51:20.789Z,18.70
2022-12-11T08:53:47.867Z,19.00
2022-12-11T08:56:16.880Z,18.13
2022-12-11T08:58:44.814Z,17.55
2022-12-11T09:01:14.435Z,15.88
2022-12-11T09:03:41.474Z,16.90
2022-12-11T09:06:11.183Z,17.17
2022-12-11T09:08:38.430Z,17.10
2022-12-11T09:11:17.274Z,16.50
2022-12-11T09:13:44.289Z,17.92
2022-12-11T09:16:14.657Z,17.00
2022-12-11T09:18:41.772Z,16.00
2022-12-11T09:21:11.661Z,18.08
2022-12-11T09:23:38.258Z,15.57
2022-12-11T09:26:06.751Z,17.17
2022-12-11T09:28:33.635Z,17.00
2022-12-11T09:31:00.783Z,17.40
2022-12-11T09:33:27.605Z,17.10
2022-12-11T09:36:01.183Z,18.50
2022-12-11T09:38:27.771Z,14.93
2022-12-11T09:40:55.271Z,14.93
2022-12-11T09:43:45.841Z,15.52
2022-12-11T09:46:15.496Z,17.25
2022-12-11T09:48:46.287Z,16.38
2022-12-11T09:51:47.906Z,16.88
2022-12-11T09:54:15.057Z,16.60
2022-12-11T09:57:09.583Z,20.05
2022-12-11T09:59:39.291Z,17.15
2022-12-11T10:02:42.724Z,16.52
2022-12-11T10:05:49.182Z,18.13
2022-12-11T10:08:37.021Z,16.57
2022-12-11T10:11:15.574Z,15.50
2022-12-11T10:14:06.532Z,16.48
2022-12-11T10:16:33.347Z,17.67
2022-12-11T10:19:00.491Z,15.73
2022-12-11T10:21:30.743Z,15.40
2022-12-11T10:24:01.945Z,18.02
2022-12-11T10:26:29.653Z,18.83
2022-12-11T10:29:00.731Z,17.88
2022-12-11T10:31:39.734Z,16.65
2022-12-11T10:34:18.654Z,17.33
2022-12-11T10:36:45.309Z,15.82
2022-12-11T10:39:17.586Z,17.08
2022-12-11T10:41:46.829Z,19.02
2022-12-11T10:44:21.426Z,18.67
2022-12-11T10:47:01.107Z,17.23
2022-12-11T10:49:31.465Z,18.40
2022-12-11T10:52:01.391Z,15.60
2022-12-11T10:54:38.225Z,14.82
2022-12-11T10:57:08.074Z,14.80
2022-12-11T10:59:43.401Z,14.77
2022-12-11T11:02:24.436Z,14.93
2022-12-11T11:04:51.851Z,16.17
2022-12-11T11:07:18.432Z,16.33
2022-12-11T11:09:45.229Z,15.52
2022-12-11T11:12:26.053Z,16.97
2022-12-11T11:15:00.444Z,18.40
2022-12-11T11:17:29.588Z,15.07
2022-12-11T11:20:11.727Z,16.38
2022-12-11T11:22:46.731Z,16.52
2022-12-11T11:25:25.697Z,14.00
2022-12-11T11:28:06.116Z,14.98
2022-12-11T11:30:38.487Z,16.48
2022-12-11T11:33:18.043Z,14.85
2022-12-11T11:35:58.295Z,18.23
2022-12-11T11:38:29.751Z,14.60
2022-12-11T11:41:25.203Z,13.38
2022-12-11T11:43:56.189Z,14.75
2022-12-11T11:46:40.782Z,15.75
2022-12-11T11:49:22.947Z,16.35
2022-12-11T11:52:02.792Z,15.43
2022-12-11T11:54:44.560Z,16.30
2022-12-11T11:57:24.719Z,17.02
2022-12-11T11:59:58.397Z,16.42
2022-12-11T12:02:25.033Z,17.20
2022-12-11T12:04:51.867Z,16.40
2022-12-11T12:07:43.395Z,18.08
2022-12-11T12:10:19.201Z,15.15
2022-12-11T12:12:52.481Z,16.35
2022-12-11T12:15:25.364Z,16.35
2022-12-11T12:17:58.353Z,16.93
2022-12-11T12:20:43.754Z,16.92
2022-12-11T12:23:23.611Z,17.60
2022-12-11T12:25:56.360Z,15.95
2022-12-11T12:29:00.752Z,15.73
2022-12-11T12:31:46.956Z,16.77
2022-12-11T12:34:51.318Z,17.63
2022-12-11T12:37:43.741Z,16.20
2022-12-11T12:40:25.554Z,17.45
2022-12-11T12:42:58.143Z,15.05
2022-12-11T12:45:40.851Z,16.37
2022-12-11T12:48:09.133Z,14.63
2022-12-11T12:50:49.489Z,17.50
2022-12-11T12:53:20.430Z,15.43
2022-12-11T12:55:48.076Z,19.13
2022-12-11T12:58:39.449Z,18.60
2022-12-11T13:01:26.439Z,15.40
2022-12-11T13:03:58.277Z,17.77
2022-12-11T13:06:41.254Z,18.10
2022-12-11T13:09:24.300Z,18.10
2022-12-11T13:11:54.928Z,16.77
2022-12-11T13:14:33.579Z,21.67
2022-12-11T13:17:19.955Z,18.30
2022-12-11T13:19:48.835Z,18.15
2022-12-11T13:22:15.520Z,17.70
2022-12-11T13:24:47.661Z,19.37
2022-12-11T13:27:46.752Z,17.52
2022-12-11T13:30:22.823Z,17.40
2022-12-11T13:33:15.860Z,19.63
2022-12-11T13:35:43.014Z,18.70
2022-12-11T13:38:22.615Z,17.40
2022-12-11T13:40:55.736Z,18.20
2022-12-11T13:43:28.355Z,17.13
2022-12-11T13:45:59.053Z,19.10
2022-12-11T13:49:06.760Z,18.25
2022-12-11T13:51:37.890Z,19.30
2022-12-11T13:54:17.387Z,18.83
2022-12-11T13:57:13.769Z,17.75
2022-12-11T13:59:48.759Z,16.95
2022-12-11T14:02:39.339Z,19.20
2022-12-11T14:05:09.839Z,18.50
2022-12-11T14:07:42.304Z,18.30
2022-12-11T14:10:19.898Z,17.38
2022-12-11T14:12:52.888Z,18.17
2022-12-11T14:15:19.935Z,20.45
2022-12-11T14:17:51.536Z,18.70
2022-12-11T14:20:22.600Z,20.17
2022-12-11T14:22:49.402Z,20.55
2022-12-11T14:25:24.724Z,26.60
2022-12-11T14:27:56.496Z,24.00
2022-12-11T14:30:27.217Z,22.80
2022-12-11T14:32:58.139Z,22.52
2022-12-11T14:35:34.260Z,21.33
2022-12-11T14:38:16.548Z,23.20
2022-12-11T14:40:47.041Z,19.63
2022-12-11T14:43:35.903Z,21.10
2022-12-11T14:46:09.089Z,20.50
2022-12-11T14:48:45.820Z,21.75
2022-12-11T14:51:16.257Z,23.15
2022-12-11T14:53:46.431Z,24.10
2022-12-11T14:56:25.541Z,23.47
2022-12-11T14:59:06.291Z,20.00
2022-12-11T15:01:35.613Z,20.17
2022-12-11T15:04:30.361Z,21.15
2022-12-11T15:06:57.381Z,21.17
2022-12-11T15:09:29.983Z,18.50
2022-12-11T15:12:08.251Z,21.30
2022-12-11T15:14:34.877Z,19.33
2022-12-11T15:17:01.594Z,21.05
2022-12-11T15:19:34.647Z,18.15
2022-12-11T15:22:04.442Z,21.97
2022-12-11T15:24:38.930Z,21.60
2022-12-11T15:27:06.861Z,22.83
2022-12-11T15:29:38.659Z,22.17
2022-12-11T15:32:08.198Z,19.83
2022-12-11T15:34:45.489Z,20.77
2022-12-11T15:37:23.796Z,21.48
2022-12-11T15:39:51.575Z,22.92
2022-12-11T15:42:26.137Z,23.13
2022-12-11T15:44:55.290Z,21.77
2022-12-11T15:47:24.590Z,23.23
2022-12-11T15:49:54.955Z,22.83
2022-12-11T15:52:21.739Z,22.00
2022-12-11T15:54:48.289Z,20.88
2022-12-11T15:57:19.371Z,25.25
2022-12-11T15:59:48.756Z,20.70
2022-12-11T16:02:15.582Z,23.50
2022-12-11T16:04:42.251Z,22.88
2022-12-11T16:07:18.868Z,24.70
2022-12-11T16:09:46.226Z,24.42
2022-12-11T16:12:14.239Z,23.20
2022-12-11T16:14:45.039Z,20.60
2022-12-11T16:17:14.009Z,21.02
2022-12-11T16:19:42.449Z,23.88
2022-12-11T16:22:10.181Z,24.42
2022-12-11T16:24:37.784Z,22.03
2022-12-11T16:27:05.530Z,21.08
2022-12-11T16:29:39.867Z,24.63
2022-12-11T16:32:08.217Z,20.45
2022-12-11T16:34:35.983Z,20.65
2022-12-11T16:37:03.736Z,22.20
2022-12-11T16:39:30.317Z,22.88
2022-12-11T16:41:56.966Z,20.60
2022-12-11T16:44:25.757Z,19.85
2022-12-11T16:46:52.729Z,20.17
2022-12-11T16:49:20.493Z,22.33
2022-12-11T16:51:49.183Z,19.45
2022-12-11T16:54:16.425Z,23.95
2022-12-11T16:56:43.126Z,22.00
2022-12-11T16:59:09.788Z,20.65
2022-12-11T17:01:36.467Z,23.40
2022-12-11T17:04:03.076Z,21.73
2022-12-11T17:06:29.650Z,19.73
2022-12-11T17:08:56.216Z,20.70
2022-12-11T17:11:27.188Z,20.30
2022-12-11T17:13:58.740Z,18.43
2022-12-11T17:16:28.982Z,20.75
2022-12-11T17:18:56.901Z,22.98
2022-12-11T17:21:24.336Z,21.75
2022-12-11T17:23:51.464Z,19.05
2022-12-11T17:26:19.007Z,22.33
2022-12-11T17:28:45.803Z,21.13
2022-12-11T17:31:18.281Z,24.90
2022-12-11T17:33:46.640Z,24.80
2022-12-11T17:36:15.662Z,23.00
2022-12-11T17:38:42.421Z,24.83
2022-12-11T17:41:14.277Z,25.52
2022-12-11T17:43:45.106Z,24.55
2022-12-11T17:46:12.306Z,26.85
2022-12-11T17:48:39.626Z,25.45
2022-12-11T17:51:08.247Z,24.87
2022-12-11T17:53:38.462Z,20.90
2022-12-11T17:56:07.558Z,26.20
2022-12-11T17:58:35.084Z,25.63
2022-12-11T18:01:08.063Z,24.17
2022-12-11T18:03:35.301Z,24.60
2022-12-11T18:06:11.919Z,23.65
2022-12-11T18:08:39.645Z,26.70
2022-12-11T18:11:12.937Z,22.75
2022-12-11T18:13:39.792Z,25.23
2022-12-11T18:16:10.402Z,25.10
2022-12-11T18:18:38.331Z,27.23
2022-12-11T18:21:06.141Z,24.55
2022-12-11T18:23:33.008Z,23.85
2022-12-11T18:25:59.620Z,27.17
2022-12-11T18:28:26.245Z,24.53
2022-12-11T18:30:52.930Z,20.98
2022-12-11T18:33:19.620Z,24.00
2022-12-11T18:35:49.140Z,24.85
2022-12-11T18:38:15.685Z,19.05
2022-12-11T18:40:42.203Z,21.97
2022-12-11T18:43:09.248Z,24.30
2022-12-11T18:45:40.207Z,22.23
2022-12-11T18:48:08.144Z,20.95
2022-12-11T18:50:35.118Z,24.77
2022-12-11T18:53:01.751Z,25.10
2022-12-11T18:55:28.403Z,22.70
2022-12-11T18:57:55.499Z,23.70
2022-12-11T19:00:22.204Z,25.75
2022-12-11T19:02:52.558Z,23.83
2022-12-11T19:05:19.279Z,25.33
2022-12-11T19:07:45.923Z,22.52
2022-12-11T19:10:12.604Z,24.35
2022-12-11T19:12:39.191Z,21.98
2022-12-11T19:15:06.233Z,22.00
2022-12-11T19:17:33.345Z,21.50
2022-12-11T19:20:05.259Z,20.77
2022-12-11T19:22:46.095Z,23.73
2022-12-11T19:25:13.105Z,24.33
2022-12-11T19:27:39.807Z,24.80
2022-12-11T19:30:06.940Z,24.20
2022-12-11T19:32:36.379Z,22.85
2022-12-11T19:35:03.266Z,23.20
2022-12-11T19:37:29.755Z,22.88
2022-12-11T19:39:56.394Z,22.13
2022-12-11T19:42:22.935Z,21.77
2022-12-11T19:44:49.445Z,27.20
2022-12-11T19:47:16.139Z,26.55
2022-12-11T19:49:42.715Z,24.02
2022-12-11T19:52:09.284Z,22.13
2022-12-11T19:54:36.618Z,25.03
2022-12-11T19:57:04.084Z,22.60
2022-12-11T19:59:30.654Z,23.40
2022-12-11T20:01:57.227Z,24.05
2022-12-11T20:04:23.889Z,24.23
2022-12-11T20:06:50.457Z,22.83
2022-12-11T20:09:18.125Z,24.55
2022-12-11T20:11:45.819Z,23.40
2022-12-11T20:14:24.227Z,22.23
2022-12-11T20:19:39.880Z,26.00
2022-12-11T20:22:06.577Z,25.88
2022-12-11T20:24:33.307Z,25.98
2022-12-11T20:27:00.103Z,24.63
2022-12-11T20:29:26.739Z,25.02
2022-12-11T20:31:53.354Z,23.67
2022-12-11T20:34:20.129Z,26.00
2022-12-11T20:36:52.195Z,26.90
2022-12-11T20:39:18.708Z,27.67
2022-12-11T20:41:45.230Z,28.35
2022-12-11T20:44:11.901Z,26.63
2022-12-11T20:46:38.617Z,26.27
2022-12-11T20:49:09.743Z,28.42
2022-12-11T20:51:37.515Z,27.42
2022-12-11T20:54:04.230Z,25.58
2022-12-11T20:56:31.163Z,28.57
2022-12-11T20:58:59.416Z,28.02
2022-12-11T21:01:28.753Z,26.77
2022-12-11T21:03:55.755Z,28.85
2022-12-11T21:06:30.760Z,26.17
2022-12-11T21:08:59.545Z,27.03
2022-12-11T21:11:27.102Z,26.42
2022-12-11T21:13:53.791Z,27.60
2022-12-11T21:16:20.621Z,27.35
2022-12-11T21:18:48.240Z,28.65
2022-12-11T21:21:15.949Z,28.13
2022-12-11T21:23:42.790Z,27.02
2022-12-11T21:26:09.375Z,29.80
2022-12-11T21:28:36.031Z,30.65
2022-12-11T21:31:08.259Z,31.60
2022-12-11T21:33:35.838Z,28.50
2022-12-11T21:36:03.270Z,27.02
2022-12-11T21:38:30.275Z,33.13
2022-12-11T21:40:57.156Z,31.25
2022-12-11T21:43:23.983Z,32.25
2022-12-11T21:46:06.493Z,30.73
2022-12-11T21:48:33.480Z,30.58
2022-12-11T21:51:13.517Z,26.88
2022-12-11T21:53:41.250Z,31.80
2022-12-11T21:56:13.912Z,27.88
2022-12-11T21:58:42.023Z,28.60
2022-12-11T22:01:34.883Z,30.50
2022-12-11T22:04:02.017Z,30.00
2022-12-11T22:06:28.620Z,29.25
2022-12-11T22:08:55.154Z,32.95
2022-12-11T22:11:24.841Z,29.97
2022-12-11T22:13:52.418Z,31.75
2022-12-11T22:16:19.007Z,31.80
2022-12-11T22:18:46.146Z,28.88
2022-12-11T22:21:13.162Z,33.83
2022-12-11T22:23:41.019Z,31.77
2022-12-11T22:26:09.019Z,32.58
2022-12-11T22:28:35.914Z,28.70
2022-12-11T22:31:02.640Z,32.13
2022-12-11T22:33:29.563Z,32.30
2022-12-11T22:36:00.092Z,29.93
2022-12-11T22:38:27.044Z,29.33
2022-12-11T22:40:54.473Z,30.15
2022-12-11T22:43:21.591Z,29.85
2022-12-11T22:45:48.210Z,28.50
2022-12-11T22:48:14.790Z,29.30
2022-12-11T22:50:41.712Z,29.92
2022-12-11T22:53:08.441Z,31.35
2022-12-11T22:55:39.637Z,31.73
2022-12-11T22:58:06.747Z,30.45
2022-12-11T23:00:33.375Z,30.60
2022-12-11T23:03:00.062Z,31.88
2022-12-11T23:05:26.927Z,32.30
2022-12-11T23:07:53.516Z,31.05
2022-12-11T23:10:20.326Z,32.08
2022-12-11T23:12:46.879Z,34.63
2022-12-11T23:15:13.686Z,30.70
2022-12-11T23:17:40.432Z,32.33
2022-12-11T23:20:07.529Z,27.58
2022-12-11T23:22:34.265Z,29.20
2022-12-11T23:25:00.750Z,31.33
2022-12-11T23:27:27.377Z,32.75
2022-12-11T23:29:55.032Z,29.48
2022-12-11T23:32:22.432Z,32.95
2022-12-11T23:34:49.040Z,28.48
2022-12-11T23:37:15.667Z,30.17
2022-12-11T23:39:42.228Z,35.08
2022-12-11T23:42:09.324Z,29.63
2022-12-11T23:44:35.846Z,29.85
2022-12-11T23:47:02.396Z,29.90
2022-12-11T23:49:28.974Z,31.50
2022-12-11T23:51:56.036Z,31.00
2022-12-11T23:54:22.609Z,28.27
2022-12-11T23:56:49.124Z,33.97
2022-12-11T23:59:15.661Z,33.17
